sensor_id;sensor_type;location;lat;lon;timestamp;temperature;humidity
15707;DHT22;7953;54.302;10.128;2023-02-05T00:00:27;-0.60;99.90
15707;DHT22;7953;54.302;10.128;2023-02-05T00:02:54;-0.60;99.90
15707;DHT22;7953;54.302;10.128;2023-02-05T00:05:20;-0.60;99.90
15707;DHT22;7953;54.302;10.128;2023-02-05T00:07:48;-0.60;99.90
15707;DHT22;7953;54.302;10.128;2023-02-05T00:10:15;-0.60;99.90
15707;DHT22;7953;54.302;10.128;2023-02-05T00:12:42;-0.60;99.90
15707;DHT22;7953;54.302;10.128;2023-02-05T00:15:09;-0.60;99.90
15707;DHT22;7953;54.302;10.128;2023-02-05T00:17:37;-0.60;99.90
15707;DHT22;7953;54.302;10.128;2023-02-05T00:20:05;-0.60;99.90
15707;DHT22;7953;54.302;10.128;2023-02-05T00:22:33;-0.60;99.90
15707;DHT22;7953;54.302;10.128;2023-02-05T00:25:00;-0.70;99.90
15707;DHT22;7953;54.302;10.128;2023-02-05T00:27:26;-0.70;99.90
15707;DHT22;7953;54.302;10.128;2023-02-05T00:29:53;-0.80;99.90
15707;DHT22;7953;54.302;10.128;2023-02-05T00:32:20;-0.70;99.90
15707;DHT22;7953;54.302;10.128;2023-02-05T00:34:48;-0.80;99.90
15707;DHT22;7953;54.302;10.128;2023-02-05T00:37:15;-0.80;99.90
15707;DHT22;7953;54.302;10.128;2023-02-05T00:39:42;-0.80;99.90
15707;DHT22;7953;54.302;10.128;2023-02-05T00:42:09;-0.80;99.90
15707;DHT22;7953;54.302;10.128;2023-02-05T00:44:36;-0.80;99.90
15707;DHT22;7953;54.302;10.128;2023-02-05T00:47:03;-0.80;99.90
15707;DHT22;7953;54.302;10.128;2023-02-05T00:49:30;-0.80;99.90
15707;DHT22;7953;54.302;10.128;2023-02-05T00:51:58;-0.80;99.90
15707;DHT22;7953;54.302;10.128;2023-02-05T00:54:25;-0.80;99.90
15707;DHT22;7953;54.302;10.128;2023-02-05T00:56:51;-0.80;99.90
15707;DHT22;7953;54.302;10.128;2023-02-05T00:59:18;-0.80;99.90
15707;DHT22;7953;54.302;10.128;2023-02-05T01:01:45;-0.80;99.90
15707;DHT22;7953;54.302;10.128;2023-02-05T01:04:12;-0.80;99.90
15707;DHT22;7953;54.302;10.128;2023-02-05T01:06:39;-0.90;99.90
15707;DHT22;7953;54.302;10.128;2023-02-05T01:09:07;-0.90;99.90
15707;DHT22;7953;54.302;10.128;2023-02-05T01:11:34;-0.90;99.90
15707;DHT22;7953;54.302;10.128;2023-02-05T01:14:01;-0.80;99.90
15707;DHT22;7953;54.302;10.128;2023-02-05T01:16:28;-0.90;99.90
15707;DHT22;7953;54.302;10.128;2023-02-05T01:18:55;-0.90;99.90
15707;DHT22;7953;54.302;10.128;2023-02-05T01:21:22;-0.90;99.90
15707;DHT22;7953;54.302;10.128;2023-02-05T01:23:49;-0.90;99.90
15707;DHT22;7953;54.302;10.128;2023-02-05T01:26:18;-1.00;99.90
15707;DHT22;7953;54.302;10.128;2023-02-05T01:28:45;-0.90;99.90
15707;DHT22;7953;54.302;10.128;2023-02-05T01:31:13;-0.90;99.90
15707;DHT22;7953;54.302;10.128;2023-02-05T01:33:40;-0.90;99.90
15707;DHT22;7953;54.302;10.128;2023-02-05T01:36:07;-0.90;99.90
15707;DHT22;7953;54.302;10.128;2023-02-05T01:38:34;-1.00;99.90
15707;DHT22;7953;54.302;10.128;2023-02-05T01:41:01;-1.00;99.90
15707;DHT22;7953;54.302;10.128;2023-02-05T01:43:29;-1.00;99.90
15707;DHT22;7953;54.302;10.128;2023-02-05T01:46:21;-1.00;99.90
15707;DHT22;7953;54.302;10.128;2023-02-05T01:48:51;-1.00;99.90
15707;DHT22;7953;54.302;10.128;2023-02-05T01:51:19;-1.00;99.90
15707;DHT22;7953;54.302;10.128;2023-02-05T01:53:47;-0.90;99.90
15707;DHT22;7953;54.302;10.128;2023-02-05T01:56:17;-1.00;99.90
15707;DHT22;7953;54.302;10.128;2023-02-05T01:58:51;-1.00;99.90
15707;DHT22;7953;54.302;10.128;2023-02-05T02:01:20;-1.00;99.90
15707;DHT22;7953;54.302;10.128;2023-02-05T02:03:48;-1.00;99.90
15707;DHT22;7953;54.302;10.128;2023-02-05T02:06:16;-0.90;99.90
15707;DHT22;7953;54.302;10.128;2023-02-05T02:08:43;-0.90;99.90
15707;DHT22;7953;54.302;10.128;2023-02-05T02:11:12;-0.90;99.90
15707;DHT22;7953;54.302;10.128;2023-02-05T02:13:42;-0.90;99.90
15707;DHT22;7953;54.302;10.128;2023-02-05T02:16:12;-0.80;99.90
15707;DHT22;7953;54.302;10.128;2023-02-05T02:18:40;-0.80;99.90
15707;DHT22;7953;54.302;10.128;2023-02-05T02:24:25;-0.80;99.90
15707;DHT22;7953;54.302;10.128;2023-02-05T02:27:05;-0.70;99.90
15707;DHT22;7953;54.302;10.128;2023-02-05T02:29:42;-0.80;99.90
15707;DHT22;7953;54.302;10.128;2023-02-05T02:32:16;-0.70;99.90
15707;DHT22;7953;54.302;10.128;2023-02-05T02:34:47;-0.70;99.90
15707;DHT22;7953;54.302;10.128;2023-02-05T02:37:19;-0.60;99.90
15707;DHT22;7953;54.302;10.128;2023-02-05T02:39:54;-0.70;99.90
15707;DHT22;7953;54.302;10.128;2023-02-05T02:42:28;-0.70;99.90
15707;DHT22;7953;54.302;10.128;2023-02-05T02:44:59;-0.60;99.90
15707;DHT22;7953;54.302;10.128;2023-02-05T02:47:29;-0.60;99.90
15707;DHT22;7953;54.302;10.128;2023-02-05T02:49:59;-0.60;99.90
15707;DHT22;7953;54.302;10.128;2023-02-05T02:52:32;-0.60;99.90
15707;DHT22;7953;54.302;10.128;2023-02-05T02:55:01;-0.60;99.90
15707;DHT22;7953;54.302;10.128;2023-02-05T02:57:33;-0.70;99.90
15707;DHT22;7953;54.302;10.128;2023-02-05T03:00:08;-0.60;99.90
15707;DHT22;7953;54.302;10.128;2023-02-05T03:02:36;-0.60;99.90
15707;DHT22;7953;54.302;10.128;2023-02-05T03:05:07;-0.60;99.90
15707;DHT22;7953;54.302;10.128;2023-02-05T03:07:38;-0.50;99.90
15707;DHT22;7953;54.302;10.128;2023-02-05T03:10:10;-0.50;99.90
15707;DHT22;7953;54.302;10.128;2023-02-05T03:12:39;-0.50;99.90
15707;DHT22;7953;54.302;10.128;2023-02-05T03:15:08;-0.60;99.90
15707;DHT22;7953;54.302;10.128;2023-02-05T03:17:35;-0.60;99.90
15707;DHT22;7953;54.302;10.128;2023-02-05T03:20:08;-0.60;99.90
15707;DHT22;7953;54.302;10.128;2023-02-05T03:22:37;-0.50;99.90
15707;DHT22;7953;54.302;10.128;2023-02-05T03:25:04;-0.50;99.90
15707;DHT22;7953;54.302;10.128;2023-02-05T03:27:32;-0.50;99.90
15707;DHT22;7953;54.302;10.128;2023-02-05T03:29:59;-0.50;99.90
15707;DHT22;7953;54.302;10.128;2023-02-05T03:32:38;-0.50;99.90
15707;DHT22;7953;54.302;10.128;2023-02-05T03:35:19;-0.50;99.90
15707;DHT22;7953;54.302;10.128;2023-02-05T03:37:58;-0.50;99.90
15707;DHT22;7953;54.302;10.128;2023-02-05T03:40:33;-0.50;99.90
15707;DHT22;7953;54.302;10.128;2023-02-05T03:43:09;-0.50;99.90
15707;DHT22;7953;54.302;10.128;2023-02-05T03:45:44;-0.50;99.90
15707;DHT22;7953;54.302;10.128;2023-02-05T03:48:28;-0.50;99.90
15707;DHT22;7953;54.302;10.128;2023-02-05T03:51:06;-0.50;99.90
15707;DHT22;7953;54.302;10.128;2023-02-05T03:53:42;-0.50;99.90
15707;DHT22;7953;54.302;10.128;2023-02-05T03:56:16;-0.50;99.90
15707;DHT22;7953;54.302;10.128;2023-02-05T03:58:47;-0.50;99.90
15707;DHT22;7953;54.302;10.128;2023-02-05T04:01:16;-0.50;99.90
15707;DHT22;7953;54.302;10.128;2023-02-05T04:03:44;-0.40;99.90
15707;DHT22;7953;54.302;10.128;2023-02-05T04:06:12;-0.40;99.90
15707;DHT22;7953;54.302;10.128;2023-02-05T04:08:39;-0.50;99.90
15707;DHT22;7953;54.302;10.128;2023-02-05T04:11:08;-0.50;99.90
15707;DHT22;7953;54.302;10.128;2023-02-05T04:13:35;-0.50;99.90
15707;DHT22;7953;54.302;10.128;2023-02-05T04:16:02;-0.50;99.90
15707;DHT22;7953;54.302;10.128;2023-02-05T04:18:29;-0.50;99.90
15707;DHT22;7953;54.302;10.128;2023-02-05T04:20:57;-0.50;99.90
15707;DHT22;7953;54.302;10.128;2023-02-05T04:23:25;-0.50;99.90
15707;DHT22;7953;54.302;10.128;2023-02-05T04:25:52;-0.50;99.90
15707;DHT22;7953;54.302;10.128;2023-02-05T04:28:19;-0.50;99.90
15707;DHT22;7953;54.302;10.128;2023-02-05T04:30:46;-0.50;99.90
15707;DHT22;7953;54.302;10.128;2023-02-05T04:33:13;-0.60;99.90
15707;DHT22;7953;54.302;10.128;2023-02-05T04:35:40;-0.50;99.90
15707;DHT22;7953;54.302;10.128;2023-02-05T04:38:08;-0.50;99.90
15707;DHT22;7953;54.302;10.128;2023-02-05T04:40:35;-0.50;99.90
15707;DHT22;7953;54.302;10.128;2023-02-05T04:43:02;-0.50;99.90
15707;DHT22;7953;54.302;10.128;2023-02-05T04:45:29;-0.50;99.90
15707;DHT22;7953;54.302;10.128;2023-02-05T04:47:58;-0.50;99.90
15707;DHT22;7953;54.302;10.128;2023-02-05T04:50:25;-0.50;99.90
15707;DHT22;7953;54.302;10.128;2023-02-05T04:52:52;-0.50;99.90
15707;DHT22;7953;54.302;10.128;2023-02-05T04:55:21;-0.50;99.90
15707;DHT22;7953;54.302;10.128;2023-02-05T04:57:48;-0.50;99.90
15707;DHT22;7953;54.302;10.128;2023-02-05T05:00:15;-0.40;99.90
15707;DHT22;7953;54.302;10.128;2023-02-05T05:02:42;-0.40;99.90
15707;DHT22;7953;54.302;10.128;2023-02-05T05:05:09;-0.40;99.90
15707;DHT22;7953;54.302;10.128;2023-02-05T05:07:36;-0.40;99.90
15707;DHT22;7953;54.302;10.128;2023-02-05T05:10:04;-0.40;99.90
15707;DHT22;7953;54.302;10.128;2023-02-05T05:12:33;-0.30;99.90
15707;DHT22;7953;54.302;10.128;2023-02-05T05:15:00;-0.30;99.90
15707;DHT22;7953;54.302;10.128;2023-02-05T05:17:27;-0.40;99.90
15707;DHT22;7953;54.302;10.128;2023-02-05T05:19:54;-0.40;99.90
15707;DHT22;7953;54.302;10.128;2023-02-05T05:22:20;-0.40;99.90
15707;DHT22;7953;54.302;10.128;2023-02-05T05:24:47;-0.40;99.90
15707;DHT22;7953;54.302;10.128;2023-02-05T05:27:14;-0.40;99.90
15707;DHT22;7953;54.302;10.128;2023-02-05T05:29:44;-0.30;99.90
15707;DHT22;7953;54.302;10.128;2023-02-05T05:32:11;-0.40;99.90
15707;DHT22;7953;54.302;10.128;2023-02-05T05:34:39;-0.40;99.90
15707;DHT22;7953;54.302;10.128;2023-02-05T05:37:05;-0.40;99.90
15707;DHT22;7953;54.302;10.128;2023-02-05T05:39:32;-0.40;99.90
15707;DHT22;7953;54.302;10.128;2023-02-05T05:42:16;-0.30;99.90
15707;DHT22;7953;54.302;10.128;2023-02-05T05:45:03;-0.20;99.90
15707;DHT22;7953;54.302;10.128;2023-02-05T05:47:30;-0.20;99.90
15707;DHT22;7953;54.302;10.128;2023-02-05T05:49:57;-0.30;99.90
15707;DHT22;7953;54.302;10.128;2023-02-05T05:52:24;-0.20;99.90
15707;DHT22;7953;54.302;10.128;2023-02-05T05:54:50;-0.20;99.90
15707;DHT22;7953;54.302;10.128;2023-02-05T05:57:17;-0.30;99.90
15707;DHT22;7953;54.302;10.128;2023-02-05T05:59:45;-0.30;99.90
15707;DHT22;7953;54.302;10.128;2023-02-05T06:02:13;-0.30;99.90
15707;DHT22;7953;54.302;10.128;2023-02-05T06:04:40;-0.30;99.90
15707;DHT22;7953;54.302;10.128;2023-02-05T06:07:07;-0.20;99.90
15707;DHT22;7953;54.302;10.128;2023-02-05T06:09:34;-0.30;99.90
15707;DHT22;7953;54.302;10.128;2023-02-05T06:12:01;-0.30;99.90
15707;DHT22;7953;54.302;10.128;2023-02-05T06:14:27;-0.20;99.90
15707;DHT22;7953;54.302;10.128;2023-02-05T06:16:55;-0.30;99.90
15707;DHT22;7953;54.302;10.128;2023-02-05T06:19:23;-0.20;99.90
15707;DHT22;7953;54.302;10.128;2023-02-05T06:21:50;-0.20;99.90
15707;DHT22;7953;54.302;10.128;2023-02-05T06:24:17;-0.20;99.90
15707;DHT22;7953;54.302;10.128;2023-02-05T06:26:44;-0.20;99.90
15707;DHT22;7953;54.302;10.128;2023-02-05T06:29:10;-0.20;99.90
15707;DHT22;7953;54.302;10.128;2023-02-05T06:31:37;-0.20;99.90
15707;DHT22;7953;54.302;10.128;2023-02-05T06:34:04;-0.20;99.90
15707;DHT22;7953;54.302;10.128;2023-02-05T06:36:32;-0.20;99.90
15707;DHT22;7953;54.302;10.128;2023-02-05T06:38:59;-0.20;99.90
15707;DHT22;7953;54.302;10.128;2023-02-05T06:41:26;-0.10;99.90
15707;DHT22;7953;54.302;10.128;2023-02-05T06:43:53;-0.20;99.90
15707;DHT22;7953;54.302;10.128;2023-02-05T06:46:20;-0.20;99.90
15707;DHT22;7953;54.302;10.128;2023-02-05T06:48:47;-0.20;99.90
15707;DHT22;7953;54.302;10.128;2023-02-05T06:51:14;-0.10;99.90
15707;DHT22;7953;54.302;10.128;2023-02-05T06:53:42;-0.10;99.90
15707;DHT22;7953;54.302;10.128;2023-02-05T06:56:09;-0.10;99.90
15707;DHT22;7953;54.302;10.128;2023-02-05T06:58:36;-0.10;99.90
15707;DHT22;7953;54.302;10.128;2023-02-05T07:01:03;-0.10;99.90
15707;DHT22;7953;54.302;10.128;2023-02-05T07:03:30;-0.10;99.90
15707;DHT22;7953;54.302;10.128;2023-02-05T07:06:01;0.00;99.90
15707;DHT22;7953;54.302;10.128;2023-02-05T07:08:28;0.00;99.90
15707;DHT22;7953;54.302;10.128;2023-02-05T07:10:57;0.00;99.90
15707;DHT22;7953;54.302;10.128;2023-02-05T07:13:24;0.00;99.90
15707;DHT22;7953;54.302;10.128;2023-02-05T07:15:51;0.00;99.90
15707;DHT22;7953;54.302;10.128;2023-02-05T07:18:18;0.00;99.90
15707;DHT22;7953;54.302;10.128;2023-02-05T07:20:45;0.10;99.90
15707;DHT22;7953;54.302;10.128;2023-02-05T07:23:12;0.10;99.90
15707;DHT22;7953;54.302;10.128;2023-02-05T07:25:39;0.10;99.90
15707;DHT22;7953;54.302;10.128;2023-02-05T07:28:08;0.10;99.90
15707;DHT22;7953;54.302;10.128;2023-02-05T07:30:35;0.10;99.90
15707;DHT22;7953;54.302;10.128;2023-02-05T07:33:02;0.10;99.90
15707;DHT22;7953;54.302;10.128;2023-02-05T07:35:29;0.10;99.90
15707;DHT22;7953;54.302;10.128;2023-02-05T07:37:56;0.10;99.90
15707;DHT22;7953;54.302;10.128;2023-02-05T07:40:24;0.20;99.90
15707;DHT22;7953;54.302;10.128;2023-02-05T07:42:50;0.20;99.90
15707;DHT22;7953;54.302;10.128;2023-02-05T07:45:19;0.20;99.90
15707;DHT22;7953;54.302;10.128;2023-02-05T07:47:46;0.20;99.90
15707;DHT22;7953;54.302;10.128;2023-02-05T07:50:14;0.20;99.90
15707;DHT22;7953;54.302;10.128;2023-02-05T07:52:41;0.20;99.90
15707;DHT22;7953;54.302;10.128;2023-02-05T07:55:09;0.20;99.90
15707;DHT22;7953;54.302;10.128;2023-02-05T07:57:36;0.30;99.90
15707;DHT22;7953;54.302;10.128;2023-02-05T08:00:03;0.30;99.90
15707;DHT22;7953;54.302;10.128;2023-02-05T08:02:32;0.30;99.90
15707;DHT22;7953;54.302;10.128;2023-02-05T08:04:59;0.30;99.90
15707;DHT22;7953;54.302;10.128;2023-02-05T08:07:26;0.30;99.90
15707;DHT22;7953;54.302;10.128;2023-02-05T08:09:53;0.30;99.90
15707;DHT22;7953;54.302;10.128;2023-02-05T08:12:20;0.30;99.90
15707;DHT22;7953;54.302;10.128;2023-02-05T08:14:46;0.40;99.90
15707;DHT22;7953;54.302;10.128;2023-02-05T08:17:13;0.40;99.90
15707;DHT22;7953;54.302;10.128;2023-02-05T08:19:41;0.40;99.90
15707;DHT22;7953;54.302;10.128;2023-02-05T08:22:08;0.50;99.90
15707;DHT22;7953;54.302;10.128;2023-02-05T08:24:35;0.40;99.90
15707;DHT22;7953;54.302;10.128;2023-02-05T08:27:03;0.40;99.90
15707;DHT22;7953;54.302;10.128;2023-02-05T08:29:30;0.40;99.90
15707;DHT22;7953;54.302;10.128;2023-02-05T08:31:57;0.40;99.90
15707;DHT22;7953;54.302;10.128;2023-02-05T08:34:24;0.50;99.90
15707;DHT22;7953;54.302;10.128;2023-02-05T08:36:52;0.50;99.90
15707;DHT22;7953;54.302;10.128;2023-02-05T08:39:19;0.50;99.90
15707;DHT22;7953;54.302;10.128;2023-02-05T08:41:45;0.50;99.90
15707;DHT22;7953;54.302;10.128;2023-02-05T08:44:12;0.50;99.90
15707;DHT22;7953;54.302;10.128;2023-02-05T08:46:39;0.60;99.90
15707;DHT22;7953;54.302;10.128;2023-02-05T08:49:06;0.50;99.90
15707;DHT22;7953;54.302;10.128;2023-02-05T08:51:33;0.50;99.90
15707;DHT22;7953;54.302;10.128;2023-02-05T08:54:01;0.50;99.90
15707;DHT22;7953;54.302;10.128;2023-02-05T08:56:30;0.50;99.90
15707;DHT22;7953;54.302;10.128;2023-02-05T08:58:57;0.50;99.90
15707;DHT22;7953;54.302;10.128;2023-02-05T09:01:24;0.60;99.90
15707;DHT22;7953;54.302;10.128;2023-02-05T09:03:51;0.60;99.90
15707;DHT22;7953;54.302;10.128;2023-02-05T09:06:18;0.60;99.90
15707;DHT22;7953;54.302;10.128;2023-02-05T09:08:45;0.60;99.90
15707;DHT22;7953;54.302;10.128;2023-02-05T09:11:15;0.70;99.90
15707;DHT22;7953;54.302;10.128;2023-02-05T09:13:45;0.70;99.90
15707;DHT22;7953;54.302;10.128;2023-02-05T09:16:12;0.80;99.90
15707;DHT22;7953;54.302;10.128;2023-02-05T09:18:39;0.80;99.90
15707;DHT22;7953;54.302;10.128;2023-02-05T09:21:07;0.80;99.90
15707;DHT22;7953;54.302;10.128;2023-02-05T09:23:34;0.80;99.90
15707;DHT22;7953;54.302;10.128;2023-02-05T09:26:02;0.80;99.90
15707;DHT22;7953;54.302;10.128;2023-02-05T09:28:30;0.80;99.90
15707;DHT22;7953;54.302;10.128;2023-02-05T09:30:57;0.80;99.90
15707;DHT22;7953;54.302;10.128;2023-02-05T09:33:24;0.80;99.90
15707;DHT22;7953;54.302;10.128;2023-02-05T09:35:51;0.80;99.90
15707;DHT22;7953;54.302;10.128;2023-02-05T09:38:18;0.80;99.90
15707;DHT22;7953;54.302;10.128;2023-02-05T09:40:53;0.80;99.90
15707;DHT22;7953;54.302;10.128;2023-02-05T09:43:32;0.80;99.90
15707;DHT22;7953;54.302;10.128;2023-02-05T09:46:08;0.80;99.90
15707;DHT22;7953;54.302;10.128;2023-02-05T09:48:44;0.80;99.90
15707;DHT22;7953;54.302;10.128;2023-02-05T09:51:16;0.80;99.90
15707;DHT22;7953;54.302;10.128;2023-02-05T09:53:48;0.90;99.90
15707;DHT22;7953;54.302;10.128;2023-02-05T09:56:16;1.00;99.90
15707;DHT22;7953;54.302;10.128;2023-02-05T09:58:47;1.00;99.90
15707;DHT22;7953;54.302;10.128;2023-02-05T10:01:23;1.00;99.90
15707;DHT22;7953;54.302;10.128;2023-02-05T10:03:55;1.00;99.90
15707;DHT22;7953;54.302;10.128;2023-02-05T10:09:30;1.00;99.90
15707;DHT22;7953;54.302;10.128;2023-02-05T10:12:09;1.00;99.90
15707;DHT22;7953;54.302;10.128;2023-02-05T10:14:47;1.10;99.90
15707;DHT22;7953;54.302;10.128;2023-02-05T10:17:37;1.10;99.90
15707;DHT22;7953;54.302;10.128;2023-02-05T10:20:22;1.10;99.90
15707;DHT22;7953;54.302;10.128;2023-02-05T10:22:59;1.20;99.90
15707;DHT22;7953;54.302;10.128;2023-02-05T10:25:44;1.20;99.90
15707;DHT22;7953;54.302;10.128;2023-02-05T10:28:32;1.20;99.90
15707;DHT22;7953;54.302;10.128;2023-02-05T10:31:06;1.20;99.90
15707;DHT22;7953;54.302;10.128;2023-02-05T10:33:45;1.20;99.90
15707;DHT22;7953;54.302;10.128;2023-02-05T10:36:14;1.30;99.90
15707;DHT22;7953;54.302;10.128;2023-02-05T10:38:43;1.20;99.90
15707;DHT22;7953;54.302;10.128;2023-02-05T10:41:14;1.20;99.90
15707;DHT22;7953;54.302;10.128;2023-02-05T10:43:48;1.30;99.90
15707;DHT22;7953;54.302;10.128;2023-02-05T10:46:18;1.20;99.90
15707;DHT22;7953;54.302;10.128;2023-02-05T10:48:48;1.30;99.90
15707;DHT22;7953;54.302;10.128;2023-02-05T10:51:20;1.30;99.90
15707;DHT22;7953;54.302;10.128;2023-02-05T10:53:48;1.30;99.90
15707;DHT22;7953;54.302;10.128;2023-02-05T10:56:17;1.40;99.90
15707;DHT22;7953;54.302;10.128;2023-02-05T10:58:48;1.40;99.90
15707;DHT22;7953;54.302;10.128;2023-02-05T11:01:20;1.40;99.90
15707;DHT22;7953;54.302;10.128;2023-02-05T11:03:52;1.40;99.90
15707;DHT22;7953;54.302;10.128;2023-02-05T11:06:21;1.30;99.90
15707;DHT22;7953;54.302;10.128;2023-02-05T11:08:49;1.40;99.90
15707;DHT22;7953;54.302;10.128;2023-02-05T11:11:21;1.50;99.90
15707;DHT22;7953;54.302;10.128;2023-02-05T11:13:52;1.50;99.90
15707;DHT22;7953;54.302;10.128;2023-02-05T11:16:21;1.60;99.90
15707;DHT22;7953;54.302;10.128;2023-02-05T11:18:55;1.70;99.90
15707;DHT22;7953;54.302;10.128;2023-02-05T11:21:26;1.60;99.90
15707;DHT22;7953;54.302;10.128;2023-02-05T11:24:22;1.80;99.90
15707;DHT22;7953;54.302;10.128;2023-02-05T11:26:49;1.70;99.90
15707;DHT22;7953;54.302;10.128;2023-02-05T11:29:20;1.60;99.90
15707;DHT22;7953;54.302;10.128;2023-02-05T11:31:50;1.70;99.90
15707;DHT22;7953;54.302;10.128;2023-02-05T11:34:17;1.60;99.90
15707;DHT22;7953;54.302;10.128;2023-02-05T11:36:49;1.50;99.90
15707;DHT22;7953;54.302;10.128;2023-02-05T11:39:30;1.60;99.90
15707;DHT22;7953;54.302;10.128;2023-02-05T11:42:07;1.50;99.90
15707;DHT22;7953;54.302;10.128;2023-02-05T11:44:38;1.50;99.90
15707;DHT22;7953;54.302;10.128;2023-02-05T11:47:09;1.60;99.90
15707;DHT22;7953;54.302;10.128;2023-02-05T11:49:38;1.60;99.90
15707;DHT22;7953;54.302;10.128;2023-02-05T11:52:08;1.60;99.90
15707;DHT22;7953;54.302;10.128;2023-02-05T11:54:36;1.60;99.90
15707;DHT22;7953;54.302;10.128;2023-02-05T11:57:06;1.60;99.90
15707;DHT22;7953;54.302;10.128;2023-02-05T11:59:55;1.60;99.90
15707;DHT22;7953;54.302;10.128;2023-02-05T12:02:31;1.60;99.90
15707;DHT22;7953;54.302;10.128;2023-02-05T12:05:03;1.60;99.90
15707;DHT22;7953;54.302;10.128;2023-02-05T12:07:38;1.60;99.90
15707;DHT22;7953;54.302;10.128;2023-02-05T12:10:17;1.60;99.90
15707;DHT22;7953;54.302;10.128;2023-02-05T12:12:50;1.70;99.90
15707;DHT22;7953;54.302;10.128;2023-02-05T12:15:23;1.60;99.90
15707;DHT22;7953;54.302;10.128;2023-02-05T12:17:59;1.60;99.90
15707;DHT22;7953;54.302;10.128;2023-02-05T12:20:32;1.60;99.90
15707;DHT22;7953;54.302;10.128;2023-02-05T12:23:21;1.60;99.90
15707;DHT22;7953;54.302;10.128;2023-02-05T12:26:01;1.60;99.90
15707;DHT22;7953;54.302;10.128;2023-02-05T12:28:38;1.50;99.90
15707;DHT22;7953;54.302;10.128;2023-02-05T12:31:17;1.60;99.90
15707;DHT22;7953;54.302;10.128;2023-02-05T12:34:15;1.60;99.90
15707;DHT22;7953;54.302;10.128;2023-02-05T12:36:56;1.60;99.90
15707;DHT22;7953;54.302;10.128;2023-02-05T12:39:37;1.60;99.90
15707;DHT22;7953;54.302;10.128;2023-02-05T12:42:17;1.70;99.90
15707;DHT22;7953;54.302;10.128;2023-02-05T12:44:56;1.70;99.90
15707;DHT22;7953;54.302;10.128;2023-02-05T12:47:35;1.80;99.90
15707;DHT22;7953;54.302;10.128;2023-02-05T12:50:17;1.80;99.90
15707;DHT22;7953;54.302;10.128;2023-02-05T12:52:54;1.80;99.90
15707;DHT22;7953;54.302;10.128;2023-02-05T12:55:39;1.80;99.90
15707;DHT22;7953;54.302;10.128;2023-02-05T12:58:12;1.80;99.90
15707;DHT22;7953;54.302;10.128;2023-02-05T13:00:42;1.80;99.90
15707;DHT22;7953;54.302;10.128;2023-02-05T13:03:20;1.80;99.90
15707;DHT22;7953;54.302;10.128;2023-02-05T13:05:51;1.80;99.90
15707;DHT22;7953;54.302;10.128;2023-02-05T13:08:27;1.80;99.90
15707;DHT22;7953;54.302;10.128;2023-02-05T13:11:02;1.80;99.90
15707;DHT22;7953;54.302;10.128;2023-02-05T13:13:35;1.70;99.90
15707;DHT22;7953;54.302;10.128;2023-02-05T13:16:05;1.70;99.90
15707;DHT22;7953;54.302;10.128;2023-02-05T13:18:37;1.70;99.90
15707;DHT22;7953;54.302;10.128;2023-02-05T13:21:09;1.70;99.90
15707;DHT22;7953;54.302;10.128;2023-02-05T13:24:02;1.70;99.90
15707;DHT22;7953;54.302;10.128;2023-02-05T13:26:47;1.70;99.90
15707;DHT22;7953;54.302;10.128;2023-02-05T13:29:37;1.70;99.90
15707;DHT22;7953;54.302;10.128;2023-02-05T13:32:13;1.70;99.90
15707;DHT22;7953;54.302;10.128;2023-02-05T13:34:42;1.70;99.90
15707;DHT22;7953;54.302;10.128;2023-02-05T13:37:38;1.60;99.90
15707;DHT22;7953;54.302;10.128;2023-02-05T13:40:25;1.60;99.90
15707;DHT22;7953;54.302;10.128;2023-02-05T13:43:13;1.60;99.90
15707;DHT22;7953;54.302;10.128;2023-02-05T13:49:11;1.70;99.90
15707;DHT22;7953;54.302;10.128;2023-02-05T13:51:47;1.70;99.90
15707;DHT22;7953;54.302;10.128;2023-02-05T14:00:32;1.80;99.90
15707;DHT22;7953;54.302;10.128;2023-02-05T14:02:59;1.80;99.90
15707;DHT22;7953;54.302;10.128;2023-02-05T14:05:32;1.80;99.90
15707;DHT22;7953;54.302;10.128;2023-02-05T14:08:00;1.80;99.90
15707;DHT22;7953;54.302;10.128;2023-02-05T14:10:31;1.80;99.90
15707;DHT22;7953;54.302;10.128;2023-02-05T14:13:15;1.80;99.90
15707;DHT22;7953;54.302;10.128;2023-02-05T14:15:43;1.70;99.90
15707;DHT22;7953;54.302;10.128;2023-02-05T14:18:11;1.70;99.90
15707;DHT22;7953;54.302;10.128;2023-02-05T14:20:40;1.70;99.90
15707;DHT22;7953;54.302;10.128;2023-02-05T14:23:14;1.70;99.90
15707;DHT22;7953;54.302;10.128;2023-02-05T14:26:08;1.70;99.90
15707;DHT22;7953;54.302;10.128;2023-02-05T14:28:49;1.70;99.90
15707;DHT22;7953;54.302;10.128;2023-02-05T14:31:44;1.80;99.90
15707;DHT22;7953;54.302;10.128;2023-02-05T14:37:31;1.70;99.90
15707;DHT22;7953;54.302;10.128;2023-02-05T14:40:20;1.70;99.90
15707;DHT22;7953;54.302;10.128;2023-02-05T14:42:51;1.70;99.90
15707;DHT22;7953;54.302;10.128;2023-02-05T14:45:21;1.70;99.90
15707;DHT22;7953;54.302;10.128;2023-02-05T14:47:49;1.70;99.90
15707;DHT22;7953;54.302;10.128;2023-02-05T14:50:20;1.70;99.90
15707;DHT22;7953;54.302;10.128;2023-02-05T14:52:49;1.70;99.90
15707;DHT22;7953;54.302;10.128;2023-02-05T14:55:20;1.70;99.90
15707;DHT22;7953;54.302;10.128;2023-02-05T14:57:53;1.70;99.90
15707;DHT22;7953;54.302;10.128;2023-02-05T15:00:25;1.70;99.90
15707;DHT22;7953;54.302;10.128;2023-02-05T15:03:21;1.80;99.90
15707;DHT22;7953;54.302;10.128;2023-02-05T15:05:52;1.80;99.90
15707;DHT22;7953;54.302;10.128;2023-02-05T15:08:27;1.70;99.90
15707;DHT22;7953;54.302;10.128;2023-02-05T15:11:06;1.80;99.90
15707;DHT22;7953;54.302;10.128;2023-02-05T15:13:35;1.70;99.90
15707;DHT22;7953;54.302;10.128;2023-02-05T15:16:07;1.80;99.90
15707;DHT22;7953;54.302;10.128;2023-02-05T15:18:37;1.80;99.90
15707;DHT22;7953;54.302;10.128;2023-02-05T15:21:06;1.80;99.90
15707;DHT22;7953;54.302;10.128;2023-02-05T15:23:40;1.80;99.90
15707;DHT22;7953;54.302;10.128;2023-02-05T15:26:18;1.80;99.90
15707;DHT22;7953;54.302;10.128;2023-02-05T15:28:55;1.80;99.90
15707;DHT22;7953;54.302;10.128;2023-02-05T15:31:31;1.80;99.90
15707;DHT22;7953;54.302;10.128;2023-02-05T15:34:09;1.80;99.90
15707;DHT22;7953;54.302;10.128;2023-02-05T15:36:44;1.80;99.90
15707;DHT22;7953;54.302;10.128;2023-02-05T15:39:18;1.80;99.90
15707;DHT22;7953;54.302;10.128;2023-02-05T15:41:51;1.80;99.90
15707;DHT22;7953;54.302;10.128;2023-02-05T15:44:24;1.80;99.90
15707;DHT22;7953;54.302;10.128;2023-02-05T15:46:52;1.80;99.90
15707;DHT22;7953;54.302;10.128;2023-02-05T15:49:24;1.80;99.90
15707;DHT22;7953;54.302;10.128;2023-02-05T15:51:54;1.80;99.90
15707;DHT22;7953;54.302;10.128;2023-02-05T15:54:21;1.80;99.90
15707;DHT22;7953;54.302;10.128;2023-02-05T15:56:51;1.80;99.90
15707;DHT22;7953;54.302;10.128;2023-02-05T15:59:21;1.80;99.90
15707;DHT22;7953;54.302;10.128;2023-02-05T16:01:52;1.80;99.90
15707;DHT22;7953;54.302;10.128;2023-02-05T16:04:28;1.70;99.90
15707;DHT22;7953;54.302;10.128;2023-02-05T16:06:55;1.70;99.90
15707;DHT22;7953;54.302;10.128;2023-02-05T16:09:23;1.70;99.90
15707;DHT22;7953;54.302;10.128;2023-02-05T16:11:50;1.70;99.90
15707;DHT22;7953;54.302;10.128;2023-02-05T16:14:18;1.70;99.90
15707;DHT22;7953;54.302;10.128;2023-02-05T16:16:56;1.70;99.90
15707;DHT22;7953;54.302;10.128;2023-02-05T16:19:27;1.70;99.90
15707;DHT22;7953;54.302;10.128;2023-02-05T16:21:59;1.70;99.90